sensor_id;sensor_type;location;lat;lon;timestamp;temperature;humidity
8408;DHT22;4241;48.452;9.216;2022-12-24T00:01:03;11.00;99.90
8408;DHT22;4241;48.452;9.216;2022-12-24T00:03:30;10.90;99.90
8408;DHT22;4241;48.452;9.216;2022-12-24T00:08:24;11.00;99.90
8408;DHT22;4241;48.452;9.216;2022-12-24T00:10:52;10.90;99.90
8408;DHT22;4241;48.452;9.216;2022-12-24T00:13:20;10.90;99.90
8408;DHT22;4241;48.452;9.216;2022-12-24T00:15:47;10.80;99.90
8408;DHT22;4241;48.452;9.216;2022-12-24T00:18:16;10.90;99.90
8408;DHT22;4241;48.452;9.216;2022-12-24T00:20:45;10.90;99.90
8408;DHT22;4241;48.452;9.216;2022-12-24T00:23:12;10.90;99.90
8408;DHT22;4241;48.452;9.216;2022-12-24T00:28:06;10.80;99.90
8408;DHT22;4241;48.452;9.216;2022-12-24T00:30:33;10.90;99.90
8408;DHT22;4241;48.452;9.216;2022-12-24T00:33:00;10.90;99.90
8408;DHT22;4241;48.452;9.216;2022-12-24T00:35:28;10.90;99.90
8408;DHT22;4241;48.452;9.216;2022-12-24T00:37:55;10.90;99.90
8408;DHT22;4241;48.452;9.216;2022-12-24T00:40:22;11.00;99.90
8408;DHT22;4241;48.452;9.216;2022-12-24T00:42:49;10.90;99.90
8408;DHT22;4241;48.452;9.216;2022-12-24T00:50:11;10.90;99.90
8408;DHT22;4241;48.452;9.216;2022-12-24T00:52:39;10.80;99.90
8408;DHT22;4241;48.452;9.216;2022-12-24T00:55:06;10.70;99.90
8408;DHT22;4241;48.452;9.216;2022-12-24T00:57:33;10.70;99.90
8408;DHT22;4241;48.452;9.216;2022-12-24T01:00:00;10.80;99.90
8408;DHT22;4241;48.452;9.216;2022-12-24T01:02:27;10.80;99.90
8408;DHT22;4241;48.452;9.216;2022-12-24T01:04:54;10.70;99.90
8408;DHT22;4241;48.452;9.216;2022-12-24T01:10:05;10.80;99.90
8408;DHT22;4241;48.452;9.216;2022-12-24T01:12:33;10.80;99.90
8408;DHT22;4241;48.452;9.216;2022-12-24T01:15:00;10.80;99.90
8408;DHT22;4241;48.452;9.216;2022-12-24T01:22:21;11.00;99.90
8408;DHT22;4241;48.452;9.216;2022-12-24T01:27:16;10.80;99.90
8408;DHT22;4241;48.452;9.216;2022-12-24T01:29:43;10.80;99.90
8408;DHT22;4241;48.452;9.216;2022-12-24T01:32:09;10.70;99.90
8408;DHT22;4241;48.452;9.216;2022-12-24T01:34:36;10.80;99.90
8408;DHT22;4241;48.452;9.216;2022-12-24T01:37:03;10.80;99.90
8408;DHT22;4241;48.452;9.216;2022-12-24T01:44:47;10.70;99.90
8408;DHT22;4241;48.452;9.216;2022-12-24T01:47:20;10.60;99.90
8408;DHT22;4241;48.452;9.216;2022-12-24T01:49:50;10.80;99.90
8408;DHT22;4241;48.452;9.216;2022-12-24T01:52:21;10.70;99.90
8408;DHT22;4241;48.452;9.216;2022-12-24T01:54:51;10.80;99.90
8408;DHT22;4241;48.452;9.216;2022-12-24T01:57:23;10.70;99.90
8408;DHT22;4241;48.452;9.216;2022-12-24T01:59:54;10.70;99.90
8408;DHT22;4241;48.452;9.216;2022-12-24T02:04:54;10.70;99.90
8408;DHT22;4241;48.452;9.216;2022-12-24T02:07:23;10.80;99.90
8408;DHT22;4241;48.452;9.216;2022-12-24T02:09:53;10.80;99.90
8408;DHT22;4241;48.452;9.216;2022-12-24T02:12:21;10.70;99.90
8408;DHT22;4241;48.452;9.216;2022-12-24T02:14:49;10.80;99.90
8408;DHT22;4241;48.452;9.216;2022-12-24T02:17:22;10.70;99.90
8408;DHT22;4241;48.452;9.216;2022-12-24T02:20:23;10.60;99.90
8408;DHT22;4241;48.452;9.216;2022-12-24T02:23:22;10.60;99.90
8408;DHT22;4241;48.452;9.216;2022-12-24T02:26:06;10.60;99.90
8408;DHT22;4241;48.452;9.216;2022-12-24T02:28:58;10.60;99.90
8408;DHT22;4241;48.452;9.216;2022-12-24T02:31:33;10.50;99.90
8408;DHT22;4241;48.452;9.216;2022-12-24T02:34:06;10.50;99.90
8408;DHT22;4241;48.452;9.216;2022-12-24T02:36:35;10.50;99.90
8408;DHT22;4241;48.452;9.216;2022-12-24T02:39:10;10.40;99.90
8408;DHT22;4241;48.452;9.216;2022-12-24T02:41:40;10.50;99.90
8408;DHT22;4241;48.452;9.216;2022-12-24T02:44:27;10.50;99.90
8408;DHT22;4241;48.452;9.216;2022-12-24T02:46:57;10.60;99.90
8408;DHT22;4241;48.452;9.216;2022-12-24T02:54:19;10.60;99.90
8408;DHT22;4241;48.452;9.216;2022-12-24T02:56:56;10.50;99.90
8408;DHT22;4241;48.452;9.216;2022-12-24T02:59:42;10.50;99.90
8408;DHT22;4241;48.452;9.216;2022-12-24T03:02:24;10.50;99.90
8408;DHT22;4241;48.452;9.216;2022-12-24T03:04:58;10.50;99.90
8408;DHT22;4241;48.452;9.216;2022-12-24T03:07:33;10.50;99.90
8408;DHT22;4241;48.452;9.216;2022-12-24T03:10:11;10.50;99.90
8408;DHT22;4241;48.452;9.216;2022-12-24T03:12:41;10.60;99.90
8408;DHT22;4241;48.452;9.216;2022-12-24T03:15:12;10.50;99.90
8408;DHT22;4241;48.452;9.216;2022-12-24T03:17:44;10.60;99.90
8408;DHT22;4241;48.452;9.216;2022-12-24T03:20:14;10.60;99.90
8408;DHT22;4241;48.452;9.216;2022-12-24T03:22:43;10.60;99.90
8408;DHT22;4241;48.452;9.216;2022-12-24T03:27:37;10.50;99.90
8408;DHT22;4241;48.452;9.216;2022-12-24T03:30:09;10.50;99.90
8408;DHT22;4241;48.452;9.216;2022-12-24T03:32:37;10.90;99.90
8408;DHT22;4241;48.452;9.216;2022-12-24T03:35:07;10.60;99.90
8408;DHT22;4241;48.452;9.216;2022-12-24T03:37:34;10.60;99.90
8408;DHT22;4241;48.452;9.216;2022-12-24T03:40:01;10.60;99.90
8408;DHT22;4241;48.452;9.216;2022-12-24T03:47:24;10.70;99.90
8408;DHT22;4241;48.452;9.216;2022-12-24T03:49:51;10.80;99.90
8408;DHT22;4241;48.452;9.216;2022-12-24T03:52:19;10.60;99.90
8408;DHT22;4241;48.452;9.216;2022-12-24T03:57:13;10.70;99.90
8408;DHT22;4241;48.452;9.216;2022-12-24T03:59:40;10.70;99.90
8408;DHT22;4241;48.452;9.216;2022-12-24T04:02:07;10.70;99.90
8408;DHT22;4241;48.452;9.216;2022-12-24T04:04:34;10.60;99.90
8408;DHT22;4241;48.452;9.216;2022-12-24T04:07:02;10.60;99.90
8408;DHT22;4241;48.452;9.216;2022-12-24T04:09:30;10.60;99.90
8408;DHT22;4241;48.452;9.216;2022-12-24T04:11:57;10.40;99.90
8408;DHT22;4241;48.452;9.216;2022-12-24T04:14:24;10.50;99.90
8408;DHT22;4241;48.452;9.216;2022-12-24T04:16:51;10.50;99.90
8408;DHT22;4241;48.452;9.216;2022-12-24T04:21:45;10.40;99.90
8408;DHT22;4241;48.452;9.216;2022-12-24T04:24:11;10.50;99.90
8408;DHT22;4241;48.452;9.216;2022-12-24T04:26:39;10.50;99.90
8408;DHT22;4241;48.452;9.216;2022-12-24T04:31:33;10.60;99.90
8408;DHT22;4241;48.452;9.216;2022-12-24T04:41:22;10.40;99.90
8408;DHT22;4241;48.452;9.216;2022-12-24T04:43:51;10.40;99.90
8408;DHT22;4241;48.452;9.216;2022-12-24T04:46:20;10.40;99.90
8408;DHT22;4241;48.452;9.216;2022-12-24T04:48:49;10.40;99.90
8408;DHT22;4241;48.452;9.216;2022-12-24T04:51:17;10.40;99.90
8408;DHT22;4241;48.452;9.216;2022-12-24T04:53:44;10.30;99.90
8408;DHT22;4241;48.452;9.216;2022-12-24T04:56:11;10.40;99.90
8408;DHT22;4241;48.452;9.216;2022-12-24T04:58:39;10.40;99.90
8408;DHT22;4241;48.452;9.216;2022-12-24T05:01:11;10.30;99.90
8408;DHT22;4241;48.452;9.216;2022-12-24T05:03:38;10.30;99.90
8408;DHT22;4241;48.452;9.216;2022-12-24T05:06:07;10.40;99.90
8408;DHT22;4241;48.452;9.216;2022-12-24T05:11:01;10.40;99.90
8408;DHT22;4241;48.452;9.216;2022-12-24T05:13:28;10.50;99.90
8408;DHT22;4241;48.452;9.216;2022-12-24T05:15:55;10.40;99.90
8408;DHT22;4241;48.452;9.216;2022-12-24T05:18:23;10.40;99.90
8408;DHT22;4241;48.452;9.216;2022-12-24T05:23:19;10.40;99.90
8408;DHT22;4241;48.452;9.216;2022-12-24T05:26:04;10.50;99.90
8408;DHT22;4241;48.452;9.216;2022-12-24T05:28:48;10.50;99.90
8408;DHT22;4241;48.452;9.216;2022-12-24T05:31:15;10.60;99.90
8408;DHT22;4241;48.452;9.216;2022-12-24T05:33:43;10.50;99.90
8408;DHT22;4241;48.452;9.216;2022-12-24T05:38:37;10.30;99.90
8408;DHT22;4241;48.452;9.216;2022-12-24T05:41:04;10.40;99.90
8408;DHT22;4241;48.452;9.216;2022-12-24T05:45:59;10.40;99.90
8408;DHT22;4241;48.452;9.216;2022-12-24T05:50:54;10.30;99.90
8408;DHT22;4241;48.452;9.216;2022-12-24T05:53:21;8.90;99.90
8408;DHT22;4241;48.452;9.216;2022-12-24T05:55:48;10.30;99.90
8408;DHT22;4241;48.452;9.216;2022-12-24T05:58:15;10.20;99.90
8408;DHT22;4241;48.452;9.216;2022-12-24T06:00:42;10.10;99.90
8408;DHT22;4241;48.452;9.216;2022-12-24T06:03:09;10.20;99.90
8408;DHT22;4241;48.452;9.216;2022-12-24T06:08:07;10.10;99.90
8408;DHT22;4241;48.452;9.216;2022-12-24T06:10:33;10.20;99.90
8408;DHT22;4241;48.452;9.216;2022-12-24T06:17:55;10.10;99.90
8408;DHT22;4241;48.452;9.216;2022-12-24T06:22:48;10.00;99.90
8408;DHT22;4241;48.452;9.216;2022-12-24T06:25:16;10.00;99.90
8408;DHT22;4241;48.452;9.216;2022-12-24T06:27:43;10.00;99.90
8408;DHT22;4241;48.452;9.216;2022-12-24T06:30:10;10.00;99.90
8408;DHT22;4241;48.452;9.216;2022-12-24T06:32:37;10.20;99.90
8408;DHT22;4241;48.452;9.216;2022-12-24T06:35:04;9.90;99.90
8408;DHT22;4241;48.452;9.216;2022-12-24T06:37:31;9.90;99.90
8408;DHT22;4241;48.452;9.216;2022-12-24T06:39:58;10.10;99.90
8408;DHT22;4241;48.452;9.216;2022-12-24T06:42:26;9.90;99.90
8408;DHT22;4241;48.452;9.216;2022-12-24T06:47:20;9.80;99.90
8408;DHT22;4241;48.452;9.216;2022-12-24T06:49:46;9.90;99.90
8408;DHT22;4241;48.452;9.216;2022-12-24T06:54:40;9.80;99.90
8408;DHT22;4241;48.452;9.216;2022-12-24T06:57:07;9.70;99.90
8408;DHT22;4241;48.452;9.216;2022-12-24T06:59:35;9.80;99.90
8408;DHT22;4241;48.452;9.216;2022-12-24T07:02:02;9.90;99.90
8408;DHT22;4241;48.452;9.216;2022-12-24T07:04:29;9.70;99.90
8408;DHT22;4241;48.452;9.216;2022-12-24T07:09:23;9.80;99.90
8408;DHT22;4241;48.452;9.216;2022-12-24T07:16:45;9.80;99.90
8408;DHT22;4241;48.452;9.216;2022-12-24T07:19:12;9.70;99.90
8408;DHT22;4241;48.452;9.216;2022-12-24T07:21:39;9.90;99.90
8408;DHT22;4241;48.452;9.216;2022-12-24T07:24:06;9.80;99.90
8408;DHT22;4241;48.452;9.216;2022-12-24T07:26:33;9.90;99.90
8408;DHT22;4241;48.452;9.216;2022-12-24T07:29:00;9.80;99.90
8408;DHT22;4241;48.452;9.216;2022-12-24T07:33:55;9.90;99.90
8408;DHT22;4241;48.452;9.216;2022-12-24T07:36:22;10.00;99.90
8408;DHT22;4241;48.452;9.216;2022-12-24T07:38:49;9.80;99.90
8408;DHT22;4241;48.452;9.216;2022-12-24T07:41:17;9.90;99.90
8408;DHT22;4241;48.452;9.216;2022-12-24T07:43:44;10.00;99.90
8408;DHT22;4241;48.452;9.216;2022-12-24T07:46:11;10.00;99.90
8408;DHT22;4241;48.452;9.216;2022-12-24T07:51:06;9.90;99.90
8408;DHT22;4241;48.452;9.216;2022-12-24T08:00:56;10.00;99.90
8408;DHT22;4241;48.452;9.216;2022-12-24T08:03:23;9.20;99.90
8408;DHT22;4241;48.452;9.216;2022-12-24T08:08:19;10.60;99.90
8408;DHT22;4241;48.452;9.216;2022-12-24T08:10:47;9.90;99.90
8408;DHT22;4241;48.452;9.216;2022-12-24T08:13:14;10.00;99.90
8408;DHT22;4241;48.452;9.216;2022-12-24T08:15:41;10.00;99.90
8408;DHT22;4241;48.452;9.216;2022-12-24T08:18:09;10.00;99.90
8408;DHT22;4241;48.452;9.216;2022-12-24T08:20:37;10.00;99.90
8408;DHT22;4241;48.452;9.216;2022-12-24T08:23:04;10.10;99.90
8408;DHT22;4241;48.452;9.216;2022-12-24T08:25:33;10.10;99.90
8408;DHT22;4241;48.452;9.216;2022-12-24T08:28:00;10.40;99.90
8408;DHT22;4241;48.452;9.216;2022-12-24T08:32:54;10.20;99.90
8408;DHT22;4241;48.452;9.216;2022-12-24T08:42:43;10.40;99.90
8408;DHT22;4241;48.452;9.216;2022-12-24T08:45:10;10.40;99.90
8408;DHT22;4241;48.452;9.216;2022-12-24T08:47:38;10.40;99.90
8408;DHT22;4241;48.452;9.216;2022-12-24T08:50:06;10.50;99.90
8408;DHT22;4241;48.452;9.216;2022-12-24T08:55:00;10.50;99.90
8408;DHT22;4241;48.452;9.216;2022-12-24T08:57:27;10.60;99.90
8408;DHT22;4241;48.452;9.216;2022-12-24T08:59:55;10.50;99.90
8408;DHT22;4241;48.452;9.216;2022-12-24T09:04:49;10.50;99.90
8408;DHT22;4241;48.452;9.216;2022-12-24T09:09:43;10.70;99.90
8408;DHT22;4241;48.452;9.216;2022-12-24T09:12:10;10.80;99.90
8408;DHT22;4241;48.452;9.216;2022-12-24T09:14:37;10.60;99.90
8408;DHT22;4241;48.452;9.216;2022-12-24T09:17:05;10.80;99.90
8408;DHT22;4241;48.452;9.216;2022-12-24T09:19:32;10.70;99.90
8408;DHT22;4241;48.452;9.216;2022-12-24T09:24:26;10.90;99.90
8408;DHT22;4241;48.452;9.216;2022-12-24T09:34:15;11.00;99.90
8408;DHT22;4241;48.452;9.216;2022-12-24T09:36:42;10.90;99.90
8408;DHT22;4241;48.452;9.216;2022-12-24T09:39:10;11.10;99.90
8408;DHT22;4241;48.452;9.216;2022-12-24T09:41:44;11.20;99.90
8408;DHT22;4241;48.452;9.216;2022-12-24T09:44:30;11.10;99.90
8408;DHT22;4241;48.452;9.216;2022-12-24T09:47:01;11.10;99.90
8408;DHT22;4241;48.452;9.216;2022-12-24T09:49:38;11.10;99.90
8408;DHT22;4241;48.452;9.216;2022-12-24T09:52:08;11.20;99.90
8408;DHT22;4241;48.452;9.216;2022-12-24T09:54:38;11.20;99.90
8408;DHT22;4241;48.452;9.216;2022-12-24T09:57:13;11.20;99.90
8408;DHT22;4241;48.452;9.216;2022-12-24T09:59:43;11.20;99.90
8408;DHT22;4241;48.452;9.216;2022-12-24T10:02:13;11.10;99.90
8408;DHT22;4241;48.452;9.216;2022-12-24T10:04:42;11.20;99.90
8408;DHT22;4241;48.452;9.216;2022-12-24T10:07:20;11.20;99.90
8408;DHT22;4241;48.452;9.216;2022-12-24T10:09:55;11.10;99.90
8408;DHT22;4241;48.452;9.216;2022-12-24T10:12:31;11.10;99.90
8408;DHT22;4241;48.452;9.216;2022-12-24T10:15:06;11.20;99.90
8408;DHT22;4241;48.452;9.216;2022-12-24T10:17:45;11.10;99.90
8408;DHT22;4241;48.452;9.216;2022-12-24T10:20:30;11.10;99.90
8408;DHT22;4241;48.452;9.216;2022-12-24T10:23:03;11.30;99.90
8408;DHT22;4241;48.452;9.216;2022-12-24T10:25:37;11.30;99.90
8408;DHT22;4241;48.452;9.216;2022-12-24T10:28:13;11.30;99.90
8408;DHT22;4241;48.452;9.216;2022-12-24T10:33:15;11.30;99.90
8408;DHT22;4241;48.452;9.216;2022-12-24T10:35:48;11.40;99.90
8408;DHT22;4241;48.452;9.216;2022-12-24T10:40:44;11.40;99.90
8408;DHT22;4241;48.452;9.216;2022-12-24T10:43:14;11.40;99.90
8408;DHT22;4241;48.452;9.216;2022-12-24T10:45:45;11.50;99.90
8408;DHT22;4241;48.452;9.216;2022-12-24T10:48:18;11.50;99.90
8408;DHT22;4241;48.452;9.216;2022-12-24T10:50:53;11.40;99.90
8408;DHT22;4241;48.452;9.216;2022-12-24T10:53:26;11.50;99.90
8408;DHT22;4241;48.452;9.216;2022-12-24T10:56:04;11.50;99.90
8408;DHT22;4241;48.452;9.216;2022-12-24T10:58:32;11.40;99.90
8408;DHT22;4241;48.452;9.216;2022-12-24T11:00:59;11.40;99.90
8408;DHT22;4241;48.452;9.216;2022-12-24T11:03:30;11.50;99.90
8408;DHT22;4241;48.452;9.216;2022-12-24T11:06:10;11.70;99.90
8408;DHT22;4241;48.452;9.216;2022-12-24T11:08:39;11.60;99.90
8408;DHT22;4241;48.452;9.216;2022-12-24T11:11:08;11.60;99.90
8408;DHT22;4241;48.452;9.216;2022-12-24T11:13:39;11.70;99.90
8408;DHT22;4241;48.452;9.216;2022-12-24T11:16:09;11.60;99.90
8408;DHT22;4241;48.452;9.216;2022-12-24T11:18:44;11.60;99.90
8408;DHT22;4241;48.452;9.216;2022-12-24T11:21:19;11.80;99.90
8408;DHT22;4241;48.452;9.216;2022-12-24T11:23:49;11.70;99.90
8408;DHT22;4241;48.452;9.216;2022-12-24T11:26:21;11.90;99.90
8408;DHT22;4241;48.452;9.216;2022-12-24T11:29:03;11.90;99.90
8408;DHT22;4241;48.452;9.216;2022-12-24T11:31:30;12.00;99.90
8408;DHT22;4241;48.452;9.216;2022-12-24T11:34:17;11.90;99.90
8408;DHT22;4241;48.452;9.216;2022-12-24T11:36:46;12.00;99.90
8408;DHT22;4241;48.452;9.216;2022-12-24T11:39:18;12.10;99.90
8408;DHT22;4241;48.452;9.216;2022-12-24T11:44:13;12.40;99.90
8408;DHT22;4241;48.452;9.216;2022-12-24T11:46:42;12.30;99.90
8408;DHT22;4241;48.452;9.216;2022-12-24T11:49:20;12.40;99.90
8408;DHT22;4241;48.452;9.216;2022-12-24T11:52:18;12.40;99.90
8408;DHT22;4241;48.452;9.216;2022-12-24T11:55:03;12.30;99.90
8408;DHT22;4241;48.452;9.216;2022-12-24T11:57:41;12.20;99.90
8408;DHT22;4241;48.452;9.216;2022-12-24T12:00:11;12.30;99.90
8408;DHT22;4241;48.452;9.216;2022-12-24T12:02:39;12.40;99.90
8408;DHT22;4241;48.452;9.216;2022-12-24T12:05:10;12.20;99.90
8408;DHT22;4241;48.452;9.216;2022-12-24T12:07:42;12.10;99.90
8408;DHT22;4241;48.452;9.216;2022-12-24T12:10:14;12.10;99.90
8408;DHT22;4241;48.452;9.216;2022-12-24T12:12:45;12.10;99.90
8408;DHT22;4241;48.452;9.216;2022-12-24T12:15:15;12.10;99.90
8408;DHT22;4241;48.452;9.216;2022-12-24T12:17:46;12.10;99.90
8408;DHT22;4241;48.452;9.216;2022-12-24T12:20:19;12.10;99.90
8408;DHT22;4241;48.452;9.216;2022-12-24T12:22:54;12.00;99.90
8408;DHT22;4241;48.452;9.216;2022-12-24T12:25:29;12.00;99.90
8408;DHT22;4241;48.452;9.216;2022-12-24T12:27:59;11.90;99.90
8408;DHT22;4241;48.452;9.216;2022-12-24T12:30:28;11.70;99.90
8408;DHT22;4241;48.452;9.216;2022-12-24T12:33:00;11.80;99.90
8408;DHT22;4241;48.452;9.216;2022-12-24T12:35:30;11.60;99.90
8408;DHT22;4241;48.452;9.216;2022-12-24T12:38:01;11.60;99.90
8408;DHT22;4241;48.452;9.216;2022-12-24T12:40:49;11.80;99.90
8408;DHT22;4241;48.452;9.216;2022-12-24T12:43:37;11.70;99.90
8408;DHT22;4241;48.452;9.216;2022-12-24T12:46:12;11.50;99.90
8408;DHT22;4241;48.452;9.216;2022-12-24T12:48:52;11.60;99.90
8408;DHT22;4241;48.452;9.216;2022-12-24T12:51:25;11.60;99.90
8408;DHT22;4241;48.452;9.216;2022-12-24T12:54:07;11.60;99.90
8408;DHT22;4241;48.452;9.216;2022-12-24T12:56:40;11.60;99.90
8408;DHT22;4241;48.452;9.216;2022-12-24T12:59:14;11.80;99.90
8408;DHT22;4241;48.452;9.216;2022-12-24T13:01:48;11.60;99.90
8408;DHT22;4241;48.452;9.216;2022-12-24T13:04:42;11.50;99.90
8408;DHT22;4241;48.452;9.216;2022-12-24T13:07:31;11.50;99.90
8408;DHT22;4241;48.452;9.216;2022-12-24T13:10:29;11.60;99.90
8408;DHT22;4241;48.452;9.216;2022-12-24T13:13:11;11.60;99.90
8408;DHT22;4241;48.452;9.216;2022-12-24T13:16:04;11.60;99.90
8408;DHT22;4241;48.452;9.216;2022-12-24T13:18:47;11.70;99.90
8408;DHT22;4241;48.452;9.216;2022-12-24T13:21:20;11.50;99.90
8408;DHT22;4241;48.452;9.216;2022-12-24T13:23:48;11.50;99.90
8408;DHT22;4241;48.452;9.216;2022-12-24T13:26:16;11.40;99.90
8408;DHT22;4241;48.452;9.216;2022-12-24T13:28:43;11.50;99.90
8408;DHT22;4241;48.452;9.216;2022-12-24T13:31:27;11.50;99.90
8408;DHT22;4241;48.452;9.216;2022-12-24T13:33:57;11.50;99.90
8408;DHT22;4241;48.452;9.216;2022-12-24T13:38:52;11.50;99.90
8408;DHT22;4241;48.452;9.216;2022-12-24T13:41:49;11.30;99.90
8408;DHT22;4241;48.452;9.216;2022-12-24T13:44:27;11.40;99.90
8408;DHT22;4241;48.452;9.216;2022-12-24T13:47:19;11.40;99.90
8408;DHT22;4241;48.452;9.216;2022-12-24T13:49:49;11.50;99.90
8408;DHT22;4241;48.452;9.216;2022-12-24T13:52:26;11.40;99.90
8408;DHT22;4241;48.452;9.216;2022-12-24T13:55:07;11.30;99.90
8408;DHT22;4241;48.452;9.216;2022-12-24T13:57:43;11.30;99.90
8408;DHT22;4241;48.452;9.216;2022-12-24T14:00:36;11.40;99.90
8408;DHT22;4241;48.452;9.216;2022-12-24T14:03:19;11.40;99.90
8408;DHT22;4241;48.452;9.216;2022-12-24T14:05:49;11.40;99.90
8408;DHT22;4241;48.452;9.216;2022-12-24T14:08:31;11.30;99.90
8408;DHT22;4241;48.452;9.216;2022-12-24T14:11:05;11.40;99.90
8408;DHT22;4241;48.452;9.216;2022-12-24T14:13:54;11.70;99.90
8408;DHT22;4241;48.452;9.216;2022-12-24T14:16:42;11.40;99.90
8408;DHT22;4241;48.452;9.216;2022-12-24T14:19:12;11.50;99.90
8408;DHT22;4241;48.452;9.216;2022-12-24T14:21:44;11.50;99.90
8408;DHT22;4241;48.452;9.216;2022-12-24T14:24:18;11.60;99.90
8408;DHT22;4241;48.452;9.216;2022-12-24T14:26:48;11.70;99.90
8408;DHT22;4241;48.452;9.216;2022-12-24T14:29:21;11.60;99.90
8408;DHT22;4241;48.452;9.216;2022-12-24T14:31:50;11.60;99.90
8408;DHT22;4241;48.452;9.216;2022-12-24T14:36:45;11.70;99.90
8408;DHT22;4241;48.452;9.216;2022-12-24T14:39:21;11.60;99.90
8408;DHT22;4241;48.452;9.216;2022-12-24T14:41:55;11.60;99.90
8408;DHT22;4241;48.452;9.216;2022-12-24T14:44:30;11.60;99.90
8408;DHT22;4241;48.452;9.216;2022-12-24T14:47:07;11.50;99.90
8408;DHT22;4241;48.452;9.216;2022-12-24T14:49:51;11.50;99.90
8408;DHT22;4241;48.452;9.216;2022-12-24T14:52:28;11.50;99.90
8408;DHT22;4241;48.452;9.216;2022-12-24T14:57:24;11.20;99.90
8408;DHT22;4241;48.452;9.216;2022-12-24T14:59:54;11.20;99.90
8408;DHT22;4241;48.452;9.216;2022-12-24T15:02:36;11.10;99.90
8408;DHT22;4241;48.452;9.216;2022-12-24T15:05:14;11.10;99.90
8408;DHT22;4241;48.452;9.216;2022-12-24T15:07:45;11.00;99.90
8408;DHT22;4241;48.452;9.216;2022-12-24T15:10:24;11.00;99.90
8408;DHT22;4241;48.452;9.216;2022-12-24T15:12:52;11.10;99.90
8408;DHT22;4241;48.452;9.216;2022-12-24T15:15:21;10.90;99.90
8408;DHT22;4241;48.452;9.216;2022-12-24T15:20:17;10.90;99.90
8408;DHT22;4241;48.452;9.216;2022-12-24T15:22:49;10.80;99.90
8408;DHT22;4241;48.452;9.216;2022-12-24T15:25:21;10.70;99.90
8408;DHT22;4241;48.452;9.216;2022-12-24T15:27:48;10.80;99.90
8408;DHT22;4241;48.452;9.216;2022-12-24T15:30:18;10.70;99.90
8408;DHT22;4241;48.452;9.216;2022-12-24T15:32:49;10.70;99.90
8408;DHT22;4241;48.452;9.216;2022-12-24T15:35:34;10.70;99.90
8408;DHT22;4241;48.452;9.216;2022-12-24T15:38:28;10.60;99.90
8408;DHT22;4241;48.452;9.216;2022-12-24T15:40:56;10.60;99.90
8408;DHT22;4241;48.452;9.216;2022-12-24T15:43:24;10.50;99.90
8408;DHT22;4241;48.452;9.216;2022-12-24T15:45:51;10.60;99.90
8408;DHT22;4241;48.452;9.216;2022-12-24T15:48:22;10.50;99.90
8408;DHT22;4241;48.452;9.216;2022-12-24T15:50:51;10.50;99.90
8408;DHT22;4241;48.452;9.216;2022-12-24T15:53:23;10.50;99.90
8408;DHT22;4241;48.452;9.216;2022-12-24T15:56:03;10.40;99.90
8408;DHT22;4241;48.452;9.216;2022-12-24T15:58:32;10.40;99.90
8408;DHT22;4241;48.452;9.216;2022-12-24T16:01:02;10.30;99.90
8408;DHT22;4241;48.452;9.216;2022-12-24T16:03:31;10.40;99.90
8408;DHT22;4241;48.452;9.216;2022-12-24T16:05:59;10.30;99.90
8408;DHT22;4241;48.452;9.216;2022-12-24T16:08:31;10.40;99.90
8408;DHT22;4241;48.452;9.216;2022-12-24T16:11:13;10.30;99.90
8408;DHT22;4241;48.452;9.216;2022-12-24T16:13:54;10.20;99.90
8408;DHT22;4241;48.452;9.216;2022-12-24T16:16:32;10.10;99.90
8408;DHT22;4241;48.452;9.216;2022-12-24T16:19:01;10.40;99.90
8408;DHT22;4241;48.452;9.216;2022-12-24T16:21:32;10.20;99.90
8408;DHT22;4241;48.452;9.216;2022-12-24T16:24:04;10.10;99.90
8408;DHT22;4241;48.452;9.216;2022-12-24T16:28:58;10.20;99.90
8408;DHT22;4241;48.452;9.216;2022-12-24T16:31:29;10.10;99.90
8408;DHT22;4241;48.452;9.216;2022-12-24T16:33:58;10.20;99.90
8408;DHT22;4241;48.452;9.216;2022-12-24T16:36:27;10.20;99.90
8408;DHT22;4241;48.452;9.216;2022-12-24T16:38:55;10.10;99.90
8408;DHT22;4241;48.452;9.216;2022-12-24T16:41:39;10.20;99.90
8408;DHT22;4241;48.452;9.216;2022-12-24T16:44:19;10.20;99.90
8408;DHT22;4241;48.452;9.216;2022-12-24T16:49:18;10.10;99.90
8408;DHT22;4241;48.452;9.216;2022-12-24T16:51:47;10.10;99.90
8408;DHT22;4241;48.452;9.216;2022-12-24T16:54:14;10.10;99.90
8408;DHT22;4241;48.452;9.216;2022-12-24T16:56:42;10.10;99.90
8408;DHT22;4241;48.452;9.216;2022-12-24T16:59:14;10.10;99.90
8408;DHT22;4241;48.452;9.216;2022-12-24T17:01:45;10.10;99.90
8408;DHT22;4241;48.452;9.216;2022-12-24T17:04:12;10.10;99.90
8408;DHT22;4241;48.452;9.216;2022-12-24T17:09:08;10.10;99.90
8408;DHT22;4241;48.452;9.216;2022-12-24T17:14:03;10.10;99.90
8408;DHT22;4241;48.452;9.216;2022-12-24T17:16:30;10.20;99.90
8408;DHT22;4241;48.452;9.216;2022-12-24T17:18:57;10.10;99.90
8408;DHT22;4241;48.452;9.216;2022-12-24T17:26:19;10.10;99.90
8408;DHT22;4241;48.452;9.216;2022-12-24T17:28:46;10.10;99.90
8408;DHT22;4241;48.452;9.216;2022-12-24T17:31:14;10.20;99.90
8408;DHT22;4241;48.452;9.216;2022-12-24T17:33:42;10.20;99.90
8408;DHT22;4241;48.452;9.216;2022-12-24T17:36:09;10.20;99.90
8408;DHT22;4241;48.452;9.216;2022-12-24T17:38:37;10.10;99.90
8408;DHT22;4241;48.452;9.216;2022-12-24T17:41:06;10.00;99.90
8408;DHT22;4241;48.452;9.216;2022-12-24T17:43:35;10.10;99.90
8408;DHT22;4241;48.452;9.216;2022-12-24T17:46:03;10.20;99.90
8408;DHT22;4241;48.452;9.216;2022-12-24T17:48:30;10.00;99.90
8408;DHT22;4241;48.452;9.216;2022-12-24T17:51:01;10.00;99.90
8408;DHT22;4241;48.452;9.216;2022-12-24T17:55:55;10.00;99.90
8408;DHT22;4241;48.452;9.216;2022-12-24T17:58:22;10.00;99.90
8408;DHT22;4241;48.452;9.216;2022-12-24T18:00:50;10.10;99.90
8408;DHT22;4241;48.452;9.216;2022-12-24T18:05:44;10.00;99.90
8408;DHT22;4241;48.452;9.216;2022-12-24T18:08:11;10.00;99.90
8408;DHT22;4241;48.452;9.216;2022-12-24T18:10:38;9.90;99.90
8408;DHT22;4241;48.452;9.216;2022-12-24T18:13:05;9.80;99.90
8408;DHT22;4241;48.452;9.216;2022-12-24T18:15:33;9.90;99.90
8408;DHT22;4241;48.452;9.216;2022-12-24T18:18:02;9.90;99.90
8408;DHT22;4241;48.452;9.216;2022-12-24T18:20:30;9.90;99.90
8408;DHT22;4241;48.452;9.216;2022-12-24T18:22:57;9.90;99.90
8408;DHT22;4241;48.452;9.216;2022-12-24T18:27:51;10.00;99.90
8408;DHT22;4241;48.452;9.216;2022-12-24T18:35:14;9.90;99.90
8408;DHT22;4241;48.452;9.216;2022-12-24T18:40:09;9.90;99.90
8408;DHT22;4241;48.452;9.216;2022-12-24T18:42:39;9.90;99.90
8408;DHT22;4241;48.452;9.216;2022-12-24T18:45:06;9.80;99.90
8408;DHT22;4241;48.452;9.216;2022-12-24T18:47:33;9.70;99.90
8408;DHT22;4241;48.452;9.216;2022-12-24T18:50:00;9.70;99.90
8408;DHT22;4241;48.452;9.216;2022-12-24T18:52:28;9.70;99.90
8408;DHT22;4241;48.452;9.216;2022-12-24T18:54:56;9.70;99.90
8408;DHT22;4241;48.452;9.216;2022-12-24T18:57:23;9.70;99.90
8408;DHT22;4241;48.452;9.216;2022-12-24T19:04:44;9.80;99.90
8408;DHT22;4241;48.452;9.216;2022-12-24T19:07:17;9.80;99.90
8408;DHT22;4241;48.452;9.216;2022-12-24T19:09:45;9.80;99.90
8408;DHT22;4241;48.452;9.216;2022-12-24T19:12:13;9.70;99.90
8408;DHT22;4241;48.452;9.216;2022-12-24T19:14:40;9.70;99.90
8408;DHT22;4241;48.452;9.216;2022-12-24T19:17:07;9.70;99.90
8408;DHT22;4241;48.452;9.216;2022-12-24T19:22:01;9.60;99.90
8408;DHT22;4241;48.452;9.216;2022-12-24T19:24:28;9.60;99.90
8408;DHT22;4241;48.452;9.216;2022-12-24T19:26:56;9.70;99.90
8408;DHT22;4241;48.452;9.216;2022-12-24T19:31:50;9.50;99.90
8408;DHT22;4241;48.452;9.216;2022-12-24T19:34:25;9.60;99.90
8408;DHT22;4241;48.452;9.216;2022-12-24T19:36:53;9.50;99.90